Time;durP1;ratioP1;P1;durP2;ratioP2;P2;SDS_P1;SDS_P2;PMS_P1;PMS_P2;Temp;Humidity;BMP_temperature;BMP_pressure;BME280_temperature;BME280_humidity;BME280_pressure;Samples;Min_cycle;Max_cycle;Signal;HPM_P1;HPM_P2
2023/03/11 00:01:02;;;;;;;4.20;1.83;;;;;;;;;;5111494;28;20100;-72
2023/03/11 00:03:28;;;;;;;7.05;2.05;;;;;;;;;;5111625;28;20039;-68
2023/03/11 00:05:57;;;;;;;8.18;1.92;;;;;;;;;;5111883;28;20360;-68
2023/03/11 00:08:24;;;;;;;7.18;1.52;;;;;;;;;;5111605;28;20050;-67
2023/03/11 00:10:52;;;;;;;10.35;1.80;;;;;;;;;;5111416;28;20062;-68
2023/03/11 00:13:18;;;;;;;6.38;1.50;;;;;;;;;;5114421;28;20539;-67
2023/03/11 00:15:47;;;;;;;5.95;1.50;;;;;;;;;;5115360;28;20039;-68
2023/03/11 00:18:13;;;;;;;2.95;1.30;;;;;;;;;;5097729;28;20032;-68
2023/03/11 00:20:41;;;;;;;4.40;2.08;;;;;;;;;;5114770;28;20039;-68
2023/03/11 00:23:08;;;;;;;4.55;1.25;;;;;;;;;;5115225;28;20050;-68
2023/03/11 00:25:34;;;;;;;4.55;1.75;;;;;;;;;;5115113;28;20050;-68
2023/03/11 00:28:01;;;;;;;4.15;1.48;;;;;;;;;;5114526;28;20036;-68
2023/03/11 00:30:27;;;;;;;10.57;1.73;;;;;;;;;;5114866;28;20152;-68
2023/03/11 00:32:55;;;;;;;2.80;1.42;;;;;;;;;;5115049;28;20050;-68
2023/03/11 00:35:22;;;;;;;5.63;1.42;;;;;;;;;;5114938;28;20035;-68
2023/03/11 00:37:48;;;;;;;3.45;1.45;;;;;;;;;;5114461;28;20046;-68
2023/03/11 00:40:16;;;;;;;5.53;1.38;;;;;;;;;;5114800;28;20044;-67
2023/03/11 00:42:42;;;;;;;7.95;1.52;;;;;;;;;;5114442;28;20050;-67
2023/03/11 00:45:08;;;;;;;4.25;1.58;;;;;;;;;;5114914;28;20086;-67
2023/03/11 00:47:34;;;;;;;4.20;1.58;;;;;;;;;;5114035;28;20044;-67
2023/03/11 00:50:00;;;;;;;7.63;1.50;;;;;;;;;;5117081;27;20150;-67
2023/03/11 00:52:27;;;;;;;6.53;1.75;;;;;;;;;;5117785;27;20498;-67
2023/03/11 00:54:54;;;;;;;5.30;1.30;;;;;;;;;;5117396;27;20042;-67
2023/03/11 00:57:20;;;;;;;7.45;1.60;;;;;;;;;;5118186;27;20043;-67
2023/03/11 00:59:46;;;;;;;4.72;1.40;;;;;;;;;;5117633;27;20043;-67
2023/03/11 01:02:12;;;;;;;3.85;1.70;;;;;;;;;;5117824;27;20092;-67
2023/03/11 01:04:38;;;;;;;3.63;1.30;;;;;;;;;;5117370;27;20047;-67
2023/03/11 01:07:04;;;;;;;6.20;1.52;;;;;;;;;;5101102;27;20221;-68
2023/03/11 01:09:30;;;;;;;3.67;1.65;;;;;;;;;;5117472;27;20088;-67
2023/03/11 01:11:56;;;;;;;10.68;1.83;;;;;;;;;;5117561;27;20079;-67
2023/03/11 01:14:22;;;;;;;3.00;1.50;;;;;;;;;;5100326;27;20035;-67
2023/03/11 01:16:49;;;;;;;6.95;1.70;;;;;;;;;;5117499;27;20122;-67
2023/03/11 01:19:15;;;;;;;3.08;1.60;;;;;;;;;;5117329;27;20050;-68
2023/03/11 01:21:41;;;;;;;6.90;1.70;;;;;;;;;;5135840;27;20112;-67
2023/03/11 01:24:08;;;;;;;7.85;1.50;;;;;;;;;;5117082;27;20039;-68
2023/03/11 01:26:34;;;;;;;4.70;1.40;;;;;;;;;;5117206;27;20035;-68
2023/03/11 01:29:00;;;;;;;6.82;1.70;;;;;;;;;;5116866;27;20085;-67
2023/03/11 01:31:26;;;;;;;8.77;1.58;;;;;;;;;;5135968;27;20478;-67
2023/03/11 01:33:52;;;;;;;3.20;1.83;;;;;;;;;;5116974;27;20042;-67
2023/03/11 01:36:18;;;;;;;5.65;1.85;;;;;;;;;;5141165;27;20036;-68
2023/03/11 01:38:44;;;;;;;4.43;1.67;;;;;;;;;;5104493;28;20073;-68
2023/03/11 01:41:11;;;;;;;7.22;1.40;;;;;;;;;;5131981;27;20032;-67
2023/03/11 01:43:40;;;;;;;8.38;1.50;;;;;;;;;;5116791;27;20483;-67
2023/03/11 01:46:12;;;;;;;4.70;1.42;;;;;;;;;;5116932;27;20478;-67
2023/03/11 01:48:38;;;;;;;6.20;1.60;;;;;;;;;;5090912;27;20043;-68
2023/03/11 01:51:05;;;;;;;4.45;1.52;;;;;;;;;;5103782;28;20131;-68
2023/03/11 01:53:31;;;;;;;5.65;1.55;;;;;;;;;;5093006;28;20044;-67
2023/03/11 01:55:57;;;;;;;5.55;1.20;;;;;;;;;;5076012;28;20050;-68
2023/03/11 01:58:25;;;;;;;5.00;1.52;;;;;;;;;;5092722;28;20031;-67
2023/03/11 02:00:51;;;;;;;8.50;1.52;;;;;;;;;;5092888;28;20109;-67
2023/03/11 02:03:20;;;;;;;5.72;1.67;;;;;;;;;;5092671;28;20484;-67
2023/03/11 02:05:47;;;;;;;3.40;1.40;;;;;;;;;;5092778;28;20475;-67
2023/03/11 02:08:13;;;;;;;4.85;1.65;;;;;;;;;;5092320;28;20036;-67
2023/03/11 02:10:40;;;;;;;4.63;1.45;;;;;;;;;;5092598;28;20044;-68
2023/03/11 02:13:10;;;;;;;4.28;1.33;;;;;;;;;;5093934;28;20392;-68
2023/03/11 02:15:36;;;;;;;1.50;1.40;;;;;;;;;;5092577;28;20044;-68
2023/03/11 02:18:04;;;;;;;5.45;1.27;;;;;;;;;;5092005;28;20028;-68
2023/03/11 02:20:33;;;;;;;4.57;1.55;;;;;;;;;;5092468;28;20152;-68
2023/03/11 02:23:00;;;;;;;8.52;1.60;;;;;;;;;;5092114;28;20044;-68
2023/03/11 02:25:33;;;;;;;5.28;1.30;;;;;;;;;;5092510;28;20211;-68
2023/03/11 02:28:00;;;;;;;6.00;1.40;;;;;;;;;;5092002;28;20136;-68
2023/03/11 02:30:27;;;;;;;4.25;1.63;;;;;;;;;;5092350;28;20044;-68
2023/03/11 02:32:54;;;;;;;3.80;1.30;;;;;;;;;;5092295;28;20036;-67
2023/03/11 02:35:20;;;;;;;3.05;1.38;;;;;;;;;;5091895;28;20036;-67
2023/03/11 02:37:47;;;;;;;3.88;1.35;;;;;;;;;;5092838;28;20032;-67
2023/03/11 02:40:32;;;;;;;6.88;1.67;;;;;;;;;;5092480;28;20058;-67
2023/03/11 02:43:03;;;;;;;4.65;1.63;;;;;;;;;;5092200;28;20043;-67
2023/03/11 02:45:30;;;;;;;5.40;1.88;;;;;;;;;;5075241;28;20076;-67
2023/03/11 02:47:57;;;;;;;4.13;1.50;;;;;;;;;;5091366;28;20101;-67
2023/03/11 02:50:27;;;;;;;6.97;1.40;;;;;;;;;;5095592;28;20047;-67
2023/03/11 02:52:53;;;;;;;7.13;1.40;;;;;;;;;;5112245;28;20047;-67
2023/03/11 02:55:20;;;;;;;9.77;1.50;;;;;;;;;;5095161;28;20087;-67
2023/03/11 02:57:46;;;;;;;3.78;1.30;;;;;;;;;;5112421;28;20119;-67
2023/03/11 03:00:15;;;;;;;6.32;1.63;;;;;;;;;;5078492;28;20082;-68
2023/03/11 03:02:45;;;;;;;5.80;1.27;;;;;;;;;;5112418;28;20043;-67
2023/03/11 03:05:11;;;;;;;6.38;2.50;;;;;;;;;;5112112;28;20492;-67
2023/03/11 03:07:37;;;;;;;4.75;2.08;;;;;;;;;;5110774;28;20124;-67
2023/03/11 03:10:04;;;;;;;6.22;1.30;;;;;;;;;;5112248;28;20476;-67
2023/03/11 03:12:31;;;;;;;5.15;1.23;;;;;;;;;;5112135;28;20080;-67
2023/03/11 03:14:57;;;;;;;6.10;1.50;;;;;;;;;;5112092;28;20142;-67
2023/03/11 03:17:23;;;;;;;6.45;1.35;;;;;;;;;;5113325;28;20502;-67
2023/03/11 03:19:49;;;;;;;7.55;1.30;;;;;;;;;;5111929;28;20097;-67
2023/03/11 03:22:15;;;;;;;8.98;2.05;;;;;;;;;;5112104;28;20398;-67
2023/03/11 03:24:41;;;;;;;5.45;1.77;;;;;;;;;;5112046;28;20100;-67
2023/03/11 03:27:08;;;;;;;6.82;1.50;;;;;;;;;;5112608;28;20369;-67
2023/03/11 03:29:34;;;;;;;1.40;1.25;;;;;;;;;;5111906;28;20079;-67
2023/03/11 03:32:00;;;;;;;13.82;1.83;;;;;;;;;;5111914;28;20039;-67
2023/03/11 03:34:26;;;;;;;7.32;1.50;;;;;;;;;;5113141;28;20612;-67
2023/03/11 03:36:52;;;;;;;7.72;1.95;;;;;;;;;;5112024;28;20040;-67
2023/03/11 03:39:18;;;;;;;6.55;2.17;;;;;;;;;;5111714;28;20036;-67
2023/03/11 03:41:45;;;;;;;6.60;1.60;;;;;;;;;;5111827;28;20543;-67
2023/03/11 03:44:11;;;;;;;4.65;2.08;;;;;;;;;;5094600;28;20099;-67
2023/03/11 03:46:38;;;;;;;7.40;1.70;;;;;;;;;;5094946;28;20105;-67
2023/03/11 03:49:04;;;;;;;9.85;1.67;;;;;;;;;;5114049;28;20096;-67
2023/03/11 03:51:33;;;;;;;9.00;2.03;;;;;;;;;;5130736;27;20039;-67
2023/03/11 03:53:59;;;;;;;5.25;1.20;;;;;;;;;;5119056;27;20475;-67
2023/03/11 03:56:26;;;;;;;1.40;1.17;;;;;;;;;;5102568;27;20477;-67
2023/03/11 03:58:52;;;;;;;2.45;1.30;;;;;;;;;;5118908;27;20043;-67
2023/03/11 04:01:18;;;;;;;5.20;2.00;;;;;;;;;;5136032;27;20057;-67
2023/03/11 04:03:44;;;;;;;12.02;1.70;;;;;;;;;;5118857;27;20039;-67
2023/03/11 04:06:15;;;;;;;5.55;1.50;;;;;;;;;;5118927;27;20035;-67
2023/03/11 04:08:41;;;;;;;5.90;1.42;;;;;;;;;;5118735;27;20042;-67
2023/03/11 04:11:07;;;;;;;5.95;1.70;;;;;;;;;;5136979;27;20084;-67
2023/03/11 04:13:33;;;;;;;4.40;1.73;;;;;;;;;;5136663;27;20112;-67
2023/03/11 04:15:59;;;;;;;12.13;1.67;;;;;;;;;;5118704;27;20118;-67
2023/03/11 04:18:25;;;;;;;6.57;2.00;;;;;;;;;;5118212;27;20031;-68
2023/03/11 04:20:52;;;;;;;1.30;1.13;;;;;;;;;;5137116;27;20501;-67
2023/03/11 04:23:18;;;;;;;7.57;2.08;;;;;;;;;;5118816;27;20095;-67
2023/03/11 04:25:44;;;;;;;4.32;1.55;;;;;;;;;;5136655;27;20046;-67
2023/03/11 04:28:10;;;;;;;6.50;1.90;;;;;;;;;;5136712;27;20087;-67
2023/03/11 04:30:36;;;;;;;7.40;1.30;;;;;;;;;;5084302;27;20039;-67
2023/03/11 04:33:02;;;;;;;9.48;1.50;;;;;;;;;;5118574;27;20118;-67
2023/03/11 04:35:28;;;;;;;3.20;1.20;;;;;;;;;;5101051;27;20122;-68
2023/03/11 04:37:54;;;;;;;5.88;1.30;;;;;;;;;;5118351;27;20194;-68
2023/03/11 04:40:20;;;;;;;7.15;1.40;;;;;;;;;;5118314;27;20051;-67
2023/03/11 04:42:46;;;;;;;2.45;1.25;;;;;;;;;;5101115;27;20047;-67
2023/03/11 04:45:12;;;;;;;5.85;1.70;;;;;;;;;;5117868;27;20047;-68
2023/03/11 04:47:38;;;;;;;9.02;1.80;;;;;;;;;;5142096;27;20106;-68
2023/03/11 04:50:04;;;;;;;3.88;1.50;;;;;;;;;;5106831;27;20069;-68
2023/03/11 04:52:31;;;;;;;4.15;1.20;;;;;;;;;;5118127;27;20051;-68
2023/03/11 04:54:57;;;;;;;2.70;1.17;;;;;;;;;;5117793;27;20436;-67
2023/03/11 04:57:23;;;;;;;5.03;1.73;;;;;;;;;;5134487;27;20035;-67
2023/03/11 04:59:49;;;;;;;3.22;1.40;;;;;;;;;;5116851;27;20435;-68
2023/03/11 05:02:15;;;;;;;2.05;1.27;;;;;;;;;;5118074;27;20092;-67
2023/03/11 05:04:41;;;;;;;3.55;1.40;;;;;;;;;;5100736;27;20046;-68
2023/03/11 05:07:07;;;;;;;2.35;1.40;;;;;;;;;;5136252;27;20074;-68
2023/03/11 05:09:35;;;;;;;4.45;1.67;;;;;;;;;;5100668;27;20035;-68
2023/03/11 05:12:01;;;;;;;4.32;1.52;;;;;;;;;;5117967;27;20490;-68
2023/03/11 05:14:27;;;;;;;1.95;1.30;;;;;;;;;;5117582;27;20057;-68
2023/03/11 05:16:53;;;;;;;7.05;1.50;;;;;;;;;;5117457;27;20039;-68
2023/03/11 05:19:31;;;;;;;5.57;1.42;;;;;;;;;;5117395;27;20120;-67
2023/03/11 05:21:57;;;;;;;3.22;1.55;;;;;;;;;;5096897;28;20093;-68
2023/03/11 05:24:26;;;;;;;10.00;1.80;;;;;;;;;;5097282;28;20047;-68
2023/03/11 05:26:52;;;;;;;5.95;1.42;;;;;;;;;;5117038;27;20039;-70
2023/03/11 05:29:19;;;;;;;2.10;1.50;;;;;;;;;;5117472;27;20364;-68
2023/03/11 05:31:45;;;;;;;5.68;1.50;;;;;;;;;;5117313;27;20047;-68
2023/03/11 05:34:11;;;;;;;4.88;1.50;;;;;;;;;;5083614;27;20444;-68
2023/03/11 05:36:38;;;;;;;4.20;1.70;;;;;;;;;;5117283;27;20042;-67
2023/03/11 05:39:04;;;;;;;3.20;1.60;;;;;;;;;;5116729;27;20050;-67
2023/03/11 05:41:30;;;;;;;1.83;1.42;;;;;;;;;;5116863;27;20513;-67
2023/03/11 05:43:56;;;;;;;2.70;1.50;;;;;;;;;;5116601;27;20031;-67
2023/03/11 05:46:23;;;;;;;4.55;1.30;;;;;;;;;;5116699;27;20114;-68
2023/03/11 05:48:49;;;;;;;3.00;1.45;;;;;;;;;;5117286;27;20042;-68
2023/03/11 05:51:15;;;;;;;4.45;1.40;;;;;;;;;;5116149;27;20051;-68
2023/03/11 05:53:47;;;;;;;2.83;1.42;;;;;;;;;;5115593;27;20038;-68
2023/03/11 05:56:17;;;;;;;4.18;1.52;;;;;;;;;;5098974;27;20047;-68
2023/03/11 05:58:43;;;;;;;3.75;1.50;;;;;;;;;;5116777;27;20394;-68
2023/03/11 06:01:10;;;;;;;3.30;1.60;;;;;;;;;;5099816;27;20039;-70
2023/03/11 06:03:36;;;;;;;3.00;1.55;;;;;;;;;;5098625;27;20043;-71
2023/03/11 06:06:04;;;;;;;5.28;1.63;;;;;;;;;;5098778;27;20071;-71
2023/03/11 06:08:33;;;;;;;5.05;1.48;;;;;;;;;;5113455;27;20035;-71
2023/03/11 06:11:09;;;;;;;6.40;1.75;;;;;;;;;;5098493;27;20152;-71
2023/03/11 06:13:35;;;;;;;4.88;1.75;;;;;;;;;;5114269;27;20084;-71
2023/03/11 06:16:01;;;;;;;5.38;2.10;;;;;;;;;;5115662;27;20043;-71
2023/03/11 06:18:28;;;;;;;7.88;2.55;;;;;;;;;;5124439;27;20467;-71
2023/03/11 06:20:57;;;;;;;10.80;3.58;;;;;;;;;;5124435;27;20039;-71
2023/03/11 06:23:23;;;;;;;7.35;2.72;;;;;;;;;;5098818;27;20554;-71
2023/03/11 06:25:59;;;;;;;8.63;2.60;;;;;;;;;;5142527;27;20043;-71
2023/03/11 06:28:25;;;;;;;8.13;2.65;;;;;;;;;;5115665;27;20038;-72
2023/03/11 06:30:51;;;;;;;4.60;2.33;;;;;;;;;;5115398;28;20043;-71
2023/03/11 06:33:17;;;;;;;12.23;2.72;;;;;;;;;;5124428;27;20027;-71
2023/03/11 06:35:43;;;;;;;6.32;2.20;;;;;;;;;;5115426;27;20483;-71
2023/03/11 06:38:09;;;;;;;4.53;2.15;;;;;;;;;;5132388;27;20039;-71
2023/03/11 06:40:37;;;;;;;12.57;2.38;;;;;;;;;;5115822;27;20074;-71
2023/03/11 06:43:03;;;;;;;5.47;2.63;;;;;;;;;;5099094;27;20149;-68
2023/03/11 06:45:29;;;;;;;3.72;2.33;;;;;;;;;;5115755;27;20057;-67
2023/03/11 06:47:55;;;;;;;14.07;2.25;;;;;;;;;;5134372;27;20050;-68
2023/03/11 06:50:22;;;;;;;6.07;2.47;;;;;;;;;;5115462;27;20483;-68
2023/03/11 06:52:49;;;;;;;5.38;2.40;;;;;;;;;;5098809;27;20139;-73
2023/03/11 06:55:15;;;;;;;4.00;2.42;;;;;;;;;;5117278;27;20031;-71
2023/03/11 06:57:41;;;;;;;5.50;2.67;;;;;;;;;;5112352;28;20051;-76
2023/03/11 07:00:11;;;;;;;6.18;2.50;;;;;;;;;;5098638;28;20168;-72
2023/03/11 07:02:37;;;;;;;5.53;2.35;;;;;;;;;;5098366;28;20122;-71
2023/03/11 07:05:03;;;;;;;4.80;2.50;;;;;;;;;;5115870;28;20397;-70
2023/03/11 07:07:29;;;;;;;9.88;3.00;;;;;;;;;;5098432;28;20065;-70
2023/03/11 07:09:59;;;;;;;10.57;3.17;;;;;;;;;;5115208;28;20095;-71
2023/03/11 07:12:25;;;;;;;14.27;3.95;;;;;;;;;;5114237;28;20047;-71
2023/03/11 07:14:57;;;;;;;7.07;3.13;;;;;;;;;;5115766;28;20103;-70
2023/03/11 07:17:23;;;;;;;8.23;3.25;;;;;;;;;;5115507;28;20043;-70
2023/03/11 07:19:49;;;;;;;14.18;4.10;;;;;;;;;;5134336;28;20046;-70
2023/03/11 07:22:16;;;;;;;7.13;3.03;;;;;;;;;;5124032;28;20035;-72
2023/03/11 07:24:45;;;;;;;8.82;3.45;;;;;;;;;;5099656;28;20047;-73
2023/03/11 07:27:11;;;;;;;7.90;3.00;;;;;;;;;;5107539;27;20075;-72
2023/03/11 07:29:37;;;;;;;10.50;3.40;;;;;;;;;;5119467;27;20042;-72
2023/03/11 07:32:03;;;;;;;8.00;2.70;;;;;;;;;;5102603;27;20095;-72
2023/03/11 07:34:29;;;;;;;6.22;3.28;;;;;;;;;;5138082;27;20114;-72
2023/03/11 07:36:55;;;;;;;7.47;3.38;;;;;;;;;;5119260;27;20039;-67
2023/03/11 07:39:22;;;;;;;11.75;3.10;;;;;;;;;;5119380;27;20039;-68
2023/03/11 07:41:48;;;;;;;34.67;3.35;;;;;;;;;;5119199;27;20050;-68
2023/03/11 07:44:14;;;;;;;16.17;2.97;;;;;;;;;;5119330;27;20046;-71
2023/03/11 07:46:41;;;;;;;12.82;2.88;;;;;;;;;;5137665;27;20039;-70
2023/03/11 07:49:07;;;;;;;12.05;2.70;;;;;;;;;;5119055;27;20051;-70
2023/03/11 07:51:34;;;;;;;12.18;2.65;;;;;;;;;;5085174;27;20051;-70
2023/03/11 07:54:00;;;;;;;9.05;2.50;;;;;;;;;;5119080;27;20089;-70
2023/03/11 07:56:28;;;;;;;5.68;2.40;;;;;;;;;;5119139;27;20035;-70
2023/03/11 07:58:54;;;;;;;10.30;2.67;;;;;;;;;;5118739;27;20551;-70
2023/03/11 08:01:22;;;;;;;9.40;2.70;;;;;;;;;;5118626;27;20126;-70
2023/03/11 08:03:49;;;;;;;17.17;2.65;;;;;;;;;;5137024;27;20114;-70
2023/03/11 08:06:20;;;;;;;11.90;3.10;;;;;;;;;;5119111;27;20427;-70
2023/03/11 08:08:47;;;;;;;11.50;3.45;;;;;;;;;;5118631;27;20134;-71
2023/03/11 08:11:14;;;;;;;11.07;2.40;;;;;;;;;;5137226;27;20035;-71
2023/03/11 08:13:41;;;;;;;5.07;2.83;;;;;;;;;;5117868;27;20103;-70
2023/03/11 08:16:08;;;;;;;12.57;2.67;;;;;;;;;;5100693;27;20053;-70
2023/03/11 08:18:34;;;;;;;10.68;2.42;;;;;;;;;;5101773;27;20039;-70
2023/03/11 08:21:04;;;;;;;10.80;2.55;;;;;;;;;;5101557;27;20047;-70
2023/03/11 08:23:30;;;;;;;9.38;2.65;;;;;;;;;;5101256;27;20551;-70
2023/03/11 08:25:56;;;;;;;12.13;3.03;;;;;;;;;;5118806;27;20453;-70
2023/03/11 08:28:23;;;;;;;7.18;3.20;;;;;;;;;;5118487;27;20070;-70
2023/03/11 08:30:49;;;;;;;14.43;3.05;;;;;;;;;;5118220;27;20184;-70
2023/03/11 08:33:15;;;;;;;8.20;2.42;;;;;;;;;;5117499;28;20039;-70
2023/03/11 08:35:41;;;;;;;10.60;2.50;;;;;;;;;;5101296;27;20042;-70
2023/03/11 08:38:07;;;;;;;12.15;2.67;;;;;;;;;;5101233;27;20499;-70
2023/03/11 08:40:33;;;;;;;7.50;2.38;;;;;;;;;;5118524;27;20126;-70
2023/03/11 08:42:59;;;;;;;6.07;2.05;;;;;;;;;;5118144;27;20047;-71
2023/03/11 08:45:25;;;;;;;9.55;2.33;;;;;;;;;;5117356;27;20091;-70
2023/03/11 08:47:51;;;;;;;6.50;2.40;;;;;;;;;;5120708;27;20035;-70
2023/03/11 08:50:18;;;;;;;6.18;2.28;;;;;;;;;;5117189;27;20043;-70
2023/03/11 08:52:44;;;;;;;19.58;3.22;;;;;;;;;;5117925;27;20043;-70
2023/03/11 08:55:16;;;;;;;12.82;2.90;;;;;;;;;;5117857;27;20038;-70
2023/03/11 08:57:42;;;;;;;20.70;3.42;;;;;;;;;;5118014;27;20505;-70
2023/03/11 09:00:09;;;;;;;13.07;4.10;;;;;;;;;;5123998;27;20530;-70
2023/03/11 09:02:36;;;;;;;9.50;3.00;;;;;;;;;;5116651;27;20047;-70
2023/03/11 09:05:03;;;;;;;17.52;2.75;;;;;;;;;;5116465;27;20038;-70
2023/03/11 09:07:29;;;;;;;8.50;2.95;;;;;;;;;;5116862;27;20502;-70
2023/03/11 09:09:56;;;;;;;9.07;2.63;;;;;;;;;;5099879;27;20043;-70
2023/03/11 09:12:22;;;;;;;8.45;2.38;;;;;;;;;;5118129;27;20047;-70
2023/03/11 09:14:48;;;;;;;8.40;2.72;;;;;;;;;;5116900;27;20099;-70
2023/03/11 09:17:14;;;;;;;11.90;3.33;;;;;;;;;;5117542;27;20047;-70
2023/03/11 09:19:40;;;;;;;10.02;2.63;;;;;;;;;;5117207;27;20513;-70
2023/03/11 09:22:06;;;;;;;7.65;2.42;;;;;;;;;;5103675;27;20387;-70
2023/03/11 09:24:33;;;;;;;16.42;2.85;;;;;;;;;;5100090;27;20039;-70
2023/03/11 09:27:00;;;;;;;8.45;2.72;;;;;;;;;;5134748;27;20035;-70
2023/03/11 09:29:26;;;;;;;10.82;2.85;;;;;;;;;;5116242;27;20462;-70
2023/03/11 09:31:52;;;;;;;10.30;3.47;;;;;;;;;;5122396;27;20139;-70
2023/03/11 09:34:18;;;;;;;11.38;2.97;;;;;;;;;;5116432;27;20047;-70
2023/03/11 09:36:45;;;;;;;10.93;2.50;;;;;;;;;;5099157;27;20031;-70
2023/03/11 09:39:11;;;;;;;10.18;2.38;;;;;;;;;;5134777;27;20114;-70
2023/03/11 09:41:57;;;;;;;13.07;2.70;;;;;;;;;;5116354;27;20038;-71
2023/03/11 09:44:27;;;;;;;9.90;2.40;;;;;;;;;;5116050;27;20039;-71
2023/03/11 09:47:09;;;;;;;4.05;2.05;;;;;;;;;;5115827;27;20031;-70
2023/03/11 09:49:42;;;;;;;14.10;3.28;;;;;;;;;;5115618;27;20125;-71
2023/03/11 09:52:13;;;;;;;10.75;2.30;;;;;;;;;;5115304;27;20051;-71
2023/03/11 09:54:47;;;;;;;14.23;2.70;;;;;;;;;;5115565;27;20033;-71
2023/03/11 09:57:19;;;;;;;9.57;3.28;;;;;;;;;;5115094;27;20108;-71
2023/03/11 09:59:46;;;;;;;5.73;2.43;;;;;;;;;;5115533;27;20483;-71
2023/03/11 10:02:16;;;;;;;6.43;2.30;;;;;;;;;;5115797;27;20428;-71
2023/03/11 10:04:49;;;;;;;7.35;2.55;;;;;;;;;;5114972;27;20122;-67
2023/03/11 10:07:20;;;;;;;8.60;2.28;;;;;;;;;;5097944;27;20074;-68
2023/03/11 10:09:56;;;;;;;6.28;2.15;;;;;;;;;;5115223;27;20051;-67
2023/03/11 10:12:22;;;;;;;9.25;2.38;;;;;;;;;;5099598;27;20045;-68
2023/03/11 10:14:48;;;;;;;7.32;2.53;;;;;;;;;;5116553;27;20071;-68
2023/03/11 10:17:21;;;;;;;9.10;2.30;;;;;;;;;;5116509;27;20039;-67
2023/03/11 10:19:55;;;;;;;8.95;2.33;;;;;;;;;;5116586;27;20046;-71
2023/03/11 10:22:36;;;;;;;6.88;1.90;;;;;;;;;;5116916;27;20101;-72
2023/03/11 10:25:16;;;;;;;11.80;2.40;;;;;;;;;;5116712;27;20046;-73
2023/03/11 10:27:48;;;;;;;8.20;2.28;;;;;;;;;;5103215;27;20046;-72
2023/03/11 10:30:17;;;;;;;7.57;3.22;;;;;;;;;;5120327;27;20035;-72
2023/03/11 10:32:43;;;;;;;8.27;1.77;;;;;;;;;;5117180;27;20039;-73
2023/03/11 10:35:23;;;;;;;3.95;2.10;;;;;;;;;;5117110;27;20036;-73
2023/03/11 10:38:00;;;;;;;11.20;2.78;;;;;;;;;;5116803;27;20031;-73
2023/03/11 10:40:29;;;;;;;5.75;1.85;;;;;;;;;;5099145;27;20133;-73
2023/03/11 10:42:55;;;;;;;8.70;2.42;;;;;;;;;;5116103;27;20054;-74
2023/03/11 10:45:22;;;;;;;7.35;2.00;;;;;;;;;;5116448;27;20039;-74
2023/03/11 10:47:48;;;;;;;5.68;1.83;;;;;;;;;;5116681;27;20187;-74
2023/03/11 10:50:18;;;;;;;6.43;2.58;;;;;;;;;;5134407;27;20043;-74
2023/03/11 10:53:05;;;;;;;10.82;2.25;;;;;;;;;;5116206;27;20047;-73
2023/03/11 10:55:31;;;;;;;6.68;1.75;;;;;;;;;;5116246;28;20396;-74
2023/03/11 10:58:05;;;;;;;4.88;1.70;;;;;;;;;;5115859;28;20043;-74
2023/03/11 11:00:31;;;;;;;5.70;1.85;;;;;;;;;;5116426;27;20479;-74
2023/03/11 11:02:58;;;;;;;9.95;1.80;;;;;;;;;;5099426;28;20035;-74
2023/03/11 11:05:32;;;;;;;9.65;2.30;;;;;;;;;;5116366;28;20050;-74
2023/03/11 11:08:15;;;;;;;3.63;1.77;;;;;;;;;;5116016;28;20088;-74
2023/03/11 11:10:51;;;;;;;3.80;1.70;;;;;;;;;;5116111;28;20039;-74
2023/03/11 11:13:19;;;;;;;6.95;1.63;;;;;;;;;;5115830;28;20084;-74
2023/03/11 11:15:51;;;;;;;5.78;2.00;;;;;;;;;;5115882;28;20039;-74
2023/03/11 11:18:29;;;;;;;8.25;1.63;;;;;;;;;;5115766;27;20046;-74
2023/03/11 11:21:02;;;;;;;5.70;1.75;;;;;;;;;;5116041;28;20104;-74
2023/03/11 11:23:31;;;;;;;7.65;1.92;;;;;;;;;;5098782;28;20050;-74
2023/03/11 11:25:59;;;;;;;7.00;1.50;;;;;;;;;;5115663;28;20046;-74
2023/03/11 11:28:25;;;;;;;4.25;1.50;;;;;;;;;;5115905;28;20043;-74
2023/03/11 11:30:59;;;;;;;2.92;1.45;;;;;;;;;;5098706;27;20046;-73
2023/03/11 11:33:25;;;;;;;13.05;2.03;;;;;;;;;;5134343;28;20391;-73
2023/03/11 11:35:53;;;;;;;4.75;1.70;;;;;;;;;;5115830;28;20035;-73
2023/03/11 11:38:22;;;;;;;4.82;1.40;;;;;;;;;;5116042;28;20043;-73
2023/03/11 11:40:49;;;;;;;6.57;1.55;;;;;;;;;;5116023;28;20058;-73
2023/03/11 11:43:21;;;;;;;15.00;1.83;;;;;;;;;;5115823;27;20039;-73
2023/03/11 11:45:53;;;;;;;5.47;1.47;;;;;;;;;;5115657;28;20096;-73
2023/03/11 11:48:22;;;;;;;4.80;1.60;;;;;;;;;;5115489;28;20486;-73
2023/03/11 11:50:51;;;;;;;5.90;2.17;;;;;;;;;;5111739;28;20135;-73
2023/03/11 11:53:39;;;;;;;3.25;1.45;;;6.20;99.90;;;;;;5112471;28;20035;-73
2023/03/11 11:56:05;;;;;;;6.82;1.30;;;;;;;;;;5111985;28;20480;-73
2023/03/11 11:58:31;;;;;;;4.03;1.80;;;;;;;;;;5095256;28;20027;-72
2023/03/11 12:00:57;;;;;;;6.38;1.90;;;;;;;;;;5111927;28;20040;-72
2023/03/11 12:03:44;;;;;;;5.32;2.15;;;;;;;;;;5112167;28;20031;-72
2023/03/11 12:06:19;;;;;;;7.68;1.88;;;;;;;;;;5113201;28;20481;-72
2023/03/11 12:09:07;;;;;;;7.50;1.85;;;;;;;;;;5112556;28;20479;-72
2023/03/11 12:11:43;;;;;;;5.00;2.00;;;;;;;;;;5115628;28;20047;-72
2023/03/11 12:14:49;;;;;;;6.32;1.92;;;6.60;99.90;;;;;;5115519;28;20047;-69
2023/03/11 12:17:17;;;;;;;5.35;1.60;;;;;;;;;;5114934;28;20051;-72
2023/03/11 12:19:48;;;;;;;8.38;1.60;;;;;;;;;;5116953;28;20044;-72
2023/03/11 12:22:24;;;;;;;5.50;1.60;;;;;;;;;;5115544;28;20043;-72
2023/03/11 12:25:03;;;;;;;5.35;1.60;;;;;;;;;;5098404;28;20124;-72
2023/03/11 12:27:34;;;;;;;5.05;1.38;;;;;;;;;;5098658;28;20039;-72
2023/03/11 12:30:12;;;;;;;7.30;2.00;;;;;;;;;;5115128;28;20039;-72
2023/03/11 12:32:59;;;;;;;4.43;1.38;;;;;;;;;;5115422;28;20518;-73
2023/03/11 12:35:27;;;;;;;7.25;1.60;;;;;;;;;;5115385;28;20126;-72
2023/03/11 12:37:59;;;;;;;3.97;1.70;;;;;;;;;;5115132;28;20081;-72
2023/03/11 12:40:44;;;;;;;4.30;1.52;;;;;;;;;;5115122;28;20078;-72
2023/03/11 12:43:22;;;;;;;4.88;1.20;;;;;;;;;;5115077;28;20044;-73
2023/03/11 12:45:54;;;;;;;4.57;1.27;;;;;;;;;;5115176;28;20498;-73
2023/03/11 12:48:29;;;;;;;10.02;1.42;;;;;;;;;;5115254;28;20479;-73
2023/03/11 12:50:56;;;;;;;4.63;1.60;;;;;;;;;;5114827;28;20136;-73
2023/03/11 12:53:45;;;;;;;3.97;1.30;;;7.50;99.90;;;;;;5114840;28;20124;-73
2023/03/11 12:56:38;;;;;;;6.47;1.70;;;;;;;;;;5115057;28;20128;-73
2023/03/11 12:59:13;;;;;;;6.78;1.70;;;;;;;;;;5111343;28;20503;-73
2023/03/11 13:01:58;;;;;;;3.80;1.40;;;;;;;;;;5115084;28;20031;-73
2023/03/11 13:04:43;;;;;;;5.35;1.23;;;;;;;;;;5114839;28;20035;-73
2023/03/11 13:07:18;;;;;;;3.30;1.48;;;;;;;;;;5114697;28;20047;-73
2023/03/11 13:09:44;;;;;;;4.97;1.55;;;;;;;;;;5097665;28;20043;-73
2023/03/11 13:12:40;;;;;;;6.55;1.52;;;7.70;99.90;;;;;;5097465;28;20499;-73
2023/03/11 13:15:21;;;;;;;5.78;1.60;;;;;;;;;;5114420;28;20526;-73
2023/03/11 13:18:06;;;;;;;10.23;1.70;;;;;;;;;;5114234;28;20108;-73
2023/03/11 13:20:40;;;;;;;2.40;1.50;;;;;;;;;;5096948;28;20036;-73
2023/03/11 13:23:09;;;;;;;2.60;1.40;;;;;;;;;;5114646;28;20050;-72
2023/03/11 13:25:40;;;;;;;4.80;1.30;;;;;;;;;;5097325;28;20127;-73
2023/03/11 13:28:14;;;;;;;6.65;1.48;;;;;;;;;;5097591;28;20047;-73
2023/03/11 13:30:43;;;;;;;4.25;1.20;;;;;;;;;;5097439;28;20039;-73
2023/03/11 13:33:15;;;;;;;3.42;1.40;;;;;;;;;;5114655;28;20047;-73
2023/03/11 13:35:44;;;;;;;4.75;1.65;;;;;;;;;;5119921;28;20043;-72
2023/03/11 13:38:28;;;;;;;4.18;1.27;;;;;;;;;;5101406;28;20126;-73
2023/03/11 13:40:54;;;;;;;11.63;1.52;;;;;;;;;;5114774;28;20043;-73
2023/03/11 13:43:21;;;;;;;5.05;1.70;;;;;;;;;;5113902;28;20046;-72
2023/03/11 13:45:57;;;;;;;8.95;1.50;;;;;;;;;;5114172;28;20502;-73
2023/03/11 13:48:29;;;;;;;10.48;1.75;;;;;;;;;;5097127;28;20048;-73
2023/03/11 13:50:55;;;;;;;;;;;;;;;;;;5113868;28;20492;-73
2023/03/11 13:53:43;;;;;;;4.68;1.30;;;8.10;99.90;;;;;;5114076;28;19923;-73
2023/03/11 13:56:24;;;;;;;3.83;1.30;;;;;;;;;;5113767;28;20050;-73
2023/03/11 13:58:50;;;;;;;3.85;1.58;;;;;;;;;;5113696;28;20387;-73
2023/03/11 14:01:17;;;;;;;6.35;1.60;;;;;;;;;;5113504;28;20052;-73
2023/03/11 14:03:44;;;;;;;2.78;1.10;;;;;;;;;;5113524;28;20399;-73
2023/03/11 14:06:15;;;;;;;5.22;1.13;;;;;;;;;;5113702;28;20117;-73
2023/03/11 14:08:42;;;;;;;2.72;1.10;;;;;;;;;;5113653;28;20047;-73
2023/03/11 14:11:10;;;;;;;5.30;1.65;;;;;;;;;;5113321;28;20344;-73
2023/03/11 14:13:39;;;;;;;4.22;1.25;;;;;;;;;;5113477;28;20122;-73
2023/03/11 14:16:09;;;;;;;3.88;1.27;;;;;;;;;;5113329;28;20092;-73
2023/03/11 14:18:35;;;;;;;3.97;1.13;;;;;;;;;;5113401;28;20058;-73
2023/03/11 14:21:03;;;;;;;1.48;1.20;;;;;;;;;;5096178;28;20040;-73
2023/03/11 14:23:32;;;;;;;6.72;1.30;;;;;;;;;;5113128;28;20486;-72
2023/03/11 14:26:17;;;;;;;5.45;1.35;;;;;;;;;;5113070;28;20043;-73
2023/03/11 14:28:45;;;;;;;4.55;1.50;;;;;;;;;;5113034;28;20045;-73
2023/03/11 14:31:31;;;;;;;7.20;1.40;;;;;;;;;;5112496;28;20509;-73
2023/03/11 14:34:06;;;;;;;5.00;1.55;;;;;;;;;;5095921;28;20550;-73
2023/03/11 14:36:42;;;;;;;8.60;1.60;;;;;;;;;;5113404;28;20102;-73
2023/03/11 14:39:27;;;;;;;4.18;1.83;;;;;;;;;;5113507;28;20118;-73
2023/03/11 14:41:55;;;;;;;6.50;1.90;;;;;;;;;;5112857;28;20044;-73
2023/03/11 14:44:22;;;;;;;7.07;2.80;;;;;;;;;;5095691;28;20051;-73
2023/03/11 14:46:49;;;;;;;5.60;2.05;;;;;;;;;;5112938;28;20375;-73
2023/03/11 14:49:17;;;;;;;4.47;1.58;;;;;;;;;;5112579;28;20052;-73
2023/03/11 14:51:45;;;;;;;4.25;1.40;;;;;;;;;;5112828;28;20109;-74